createdAt,value
2023-02-23T00:04:45.568Z,101212.47
2023-02-23T00:09:50.917Z,101208.59
2023-02-23T00:14:56.318Z,101210.25
2023-02-23T00:20:01.132Z,101204.34
2023-02-23T00:25:08.834Z,101206.22
2023-02-23T00:30:16.891Z,101205.75
2023-02-23T00:35:21.236Z,101205.97
2023-02-23T00:40:25.352Z,101205.06
2023-02-23T00:45:30.746Z,101201.16
2023-02-23T00:50:34.834Z,101200.09
2023-02-23T00:55:42.931Z,101201.72
2023-02-23T01:00:48.570Z,101196.44
2023-02-23T01:05:55.397Z,101199.88
2023-02-23T01:10:59.987Z,101205.72
2023-02-23T01:16:08.099Z,101213.38
2023-02-23T01:21:17.893Z,101214.34
2023-02-23T01:26:24.632Z,101219.63
2023-02-23T01:31:31.645Z,101212.94
2023-02-23T01:36:39.001Z,101220.91
2023-02-23T01:41:43.920Z,101217.25
2023-02-23T01:46:50.256Z,101219.47
2023-02-23T01:51:59.932Z,101231.09
2023-02-23T01:57:07.560Z,101226.84
2023-02-23T02:02:14.239Z,101226.84
2023-02-23T02:07:21.427Z,101229.09
2023-02-23T02:12:26.273Z,101231.34
2023-02-23T02:17:39.910Z,101227.59
2023-02-23T02:23:36.779Z,101221.66
2023-02-23T02:29:26.736Z,101224.19
2023-02-23T02:35:10.129Z,101225.22
2023-02-23T02:40:25.847Z,101223.22
2023-02-23T02:45:38.469Z,101217.91
2023-02-23T02:50:50.622Z,101210.03
2023-02-23T02:55:59.831Z,101214.28
2023-02-23T03:01:26.956Z,101214.03
2023-02-23T03:06:52.174Z,101216.88
2023-02-23T03:12:27.421Z,101210.50
2023-02-23T03:17:56.992Z,101227.69
2023-02-23T03:23:28.565Z,101224.03
2023-02-23T03:28:54.810Z,101233.13
2023-02-23T03:34:27.412Z,101236.75
2023-02-23T03:39:54.942Z,101241.22
2023-02-23T03:45:24.885Z,101233.94
2023-02-23T03:50:54.511Z,101243.69
2023-02-23T03:56:18.020Z,101240.28
2023-02-23T04:01:42.197Z,101244.53
2023-02-23T04:07:05.652Z,101239.47
2023-02-23T04:12:34.162Z,101240.94
2023-02-23T04:17:40.241Z,101248.09
2023-02-23T04:22:44.253Z,101260.97
2023-02-23T04:27:48.346Z,101265.59
2023-02-23T04:32:53.808Z,101261.16
2023-02-23T04:37:57.944Z,101263.25
2023-02-23T04:43:02.201Z,101263.88
2023-02-23T04:48:08.238Z,101266.53
2023-02-23T04:53:12.242Z,101269.13
2023-02-23T04:58:16.233Z,101271.81
2023-02-23T05:03:21.591Z,101270.78
2023-02-23T05:08:25.635Z,101273.16
2023-02-23T05:13:29.589Z,101273.38
2023-02-23T05:18:35.081Z,101280.34
2023-02-23T05:23:39.754Z,101281.03
2023-02-23T05:28:44.466Z,101281.88
2023-02-23T05:33:49.841Z,101291.63
2023-02-23T05:38:53.903Z,101292.34
2023-02-23T05:43:57.855Z,101294.66
2023-02-23T05:49:03.523Z,101297.22
2023-02-23T05:54:07.863Z,101300.72
2023-02-23T05:59:13.246Z,101290.28
2023-02-23T06:04:19.193Z,101288.53
2023-02-23T06:09:23.200Z,101294.66
2023-02-23T06:14:27.371Z,101309.66
2023-02-23T06:19:33.036Z,101309.06
2023-02-23T06:24:37.071Z,101307.97
2023-02-23T06:29:41.676Z,101317.41
2023-02-23T06:34:47.032Z,101326.47
2023-02-23T06:39:51.107Z,101337.75
2023-02-23T06:44:55.106Z,101339.53
2023-02-23T06:50:02.089Z,101350.91
2023-02-23T06:55:08.089Z,101355.50
2023-02-23T07:00:15.214Z,101364.22
2023-02-23T07:05:21.004Z,101366.28
2023-02-23T07:10:24.949Z,101365.13
2023-02-23T07:15:29.172Z,101376.94
2023-02-23T07:20:35.104Z,101397.88
2023-02-23T07:25:39.055Z,101395.28
2023-02-23T07:30:43.115Z,101403.53
2023-02-23T07:35:50.470Z,101398.34
2023-02-23T07:40:54.821Z,101406.66
2023-02-23T07:46:01.892Z,101412.06
2023-02-23T07:51:12.422Z,101431.50
2023-02-23T07:56:16.409Z,101431.72
2023-02-23T08:01:20.626Z,101437.66
2023-02-23T08:06:26.305Z,101425.31
2023-02-23T08:11:30.301Z,101447.06
2023-02-23T08:16:34.913Z,101447.47
2023-02-23T08:21:40.276Z,101459.28
2023-02-23T08:26:44.709Z,101463.84
2023-02-23T08:31:48.859Z,101462.50
2023-02-23T08:36:54.519Z,101467.47
2023-02-23T08:41:58.656Z,101473.03
2023-02-23T08:47:04.707Z,101482.78
2023-02-23T08:52:10.573Z,101482.25
2023-02-23T08:57:14.792Z,101475.47
2023-02-23T09:02:18.880Z,101490.50
2023-02-23T09:07:25.735Z,101491.44
2023-02-23T09:12:29.822Z,101496.06
2023-02-23T09:17:33.869Z,101517.66
2023-02-23T09:22:39.225Z,101518.41
2023-02-23T09:27:43.242Z,101518.22
2023-02-23T09:32:47.445Z,101524.44
2023-02-23T09:37:54.902Z,101529.47
2023-02-23T09:43:06.978Z,101518.59
2023-02-23T09:48:17.660Z,101521.34
2023-02-23T09:53:37.269Z,101525.16
2023-02-23T09:58:41.710Z,101545.03
2023-02-23T10:03:54.473Z,101532.34
2023-02-23T10:09:15.887Z,101529.03
2023-02-23T10:14:36.398Z,101535.75
2023-02-23T10:19:49.271Z,101528.97
2023-02-23T10:25:02.126Z,101514.25
2023-02-23T10:30:20.047Z,101515.22
2023-02-23T10:35:25.427Z,101539.81
2023-02-23T10:40:35.673Z,101550.56
2023-02-23T10:45:45.665Z,101539.06
2023-02-23T10:50:53.064Z,101546.63
2023-02-23T10:56:10.848Z,101542.41
2023-02-23T11:01:18.924Z,101543.41
2023-02-23T11:06:30.597Z,101546.81
2023-02-23T11:11:35.881Z,101544.09
2023-02-23T11:16:40.982Z,101541.19
2023-02-23T11:21:52.731Z,101537.03
2023-02-23T11:27:03.823Z,101535.63
2023-02-23T11:32:13.664Z,101525.81
2023-02-23T11:37:23.526Z,101533.75
2023-02-23T11:42:33.519Z,101539.31
2023-02-23T11:47:42.508Z,101530.41
2023-02-23T11:52:46.625Z,101531.84
2023-02-23T11:57:53.566Z,101526.75
2023-02-23T12:03:00.259Z,101527.25
2023-02-23T12:08:08.332Z,101517.66
2023-02-23T12:13:26.801Z,101529.88
2023-02-23T12:18:47.554Z,101518.50
2023-02-23T12:24:02.230Z,101523.31
2023-02-23T12:29:19.753Z,101504.56
2023-02-23T12:34:29.538Z,101498.00
2023-02-23T12:39:37.972Z,101501.78
2023-02-23T12:44:48.707Z,101508.34
2023-02-23T12:50:00.498Z,101503.72
2023-02-23T12:55:05.332Z,101509.28
2023-02-23T13:00:44.188Z,101520.66
2023-02-23T13:05:53.205Z,101514.34
2023-02-23T13:11:09.790Z,101528.72
2023-02-23T13:16:23.980Z,101528.88
2023-02-23T13:21:34.765Z,101534.44
2023-02-23T13:26:48.678Z,101530.31
2023-02-23T13:31:54.880Z,101540.94
2023-02-23T13:37:01.494Z,101542.66
2023-02-23T13:42:21.944Z,101539.16
2023-02-23T13:47:39.888Z,101526.53
2023-02-23T13:52:46.862Z,101536.06
2023-02-23T13:57:51.069Z,101520.50
2023-02-23T14:02:57.264Z,101531.06
2023-02-23T14:08:05.308Z,101536.19
2023-02-23T14:13:30.076Z,101541.38
2023-02-23T14:18:36.042Z,101545.81
2023-02-23T14:23:53.392Z,101538.53
2023-02-23T14:29:27.799Z,101538.31
2023-02-23T14:34:51.181Z,101540.03
2023-02-23T14:40:02.160Z,101542.50
2023-02-23T14:45:18.839Z,101537.69
2023-02-23T14:50:33.167Z,101530.03
2023-02-23T14:55:43.480Z,101532.19
2023-02-23T15:00:49.046Z,101533.84
2023-02-23T15:05:58.910Z,101534.69
2023-02-23T15:11:06.810Z,101528.22
2023-02-23T15:16:17.591Z,101526.00
2023-02-23T15:21:25.221Z,101526.34
2023-02-23T15:26:32.241Z,101532.72
2023-02-23T15:31:36.774Z,101537.66
2023-02-23T15:36:44.248Z,101530.94
2023-02-23T15:41:50.323Z,101533.50
2023-02-23T15:46:57.924Z,101539.97
2023-02-23T15:52:08.236Z,101532.69
2023-02-23T15:57:22.815Z,101544.00
2023-02-23T16:02:27.660Z,101549.97
2023-02-23T16:07:43.397Z,101540.41
2023-02-23T16:12:51.281Z,101550.38
2023-02-23T16:18:00.796Z,101546.09
2023-02-23T16:23:07.875Z,101552.34
2023-02-23T16:28:19.120Z,101550.00
2023-02-23T16:33:25.386Z,101552.88
2023-02-23T16:38:37.229Z,101552.88
2023-02-23T16:43:41.545Z,101554.00
2023-02-23T16:48:46.012Z,101564.44
2023-02-23T16:53:52.611Z,101559.34
2023-02-23T16:59:03.590Z,101550.13
2023-02-23T17:04:15.377Z,101551.59
2023-02-23T17:09:27.679Z,101556.91
2023-02-23T17:14:32.582Z,101570.16
2023-02-23T17:19:36.895Z,101569.22
2023-02-23T17:24:43.493Z,101572.94
2023-02-23T17:29:47.539Z,101565.03
2023-02-23T17:34:52.282Z,101571.78
2023-02-23T17:39:57.637Z,101568.56
2023-02-23T17:45:02.712Z,101574.25
2023-02-23T17:50:07.920Z,101580.38
2023-02-23T17:55:13.326Z,101580.13
2023-02-23T18:00:20.272Z,101584.53
2023-02-23T18:05:24.403Z,101589.41
2023-02-23T18:10:29.885Z,101598.03
2023-02-23T18:15:34.357Z,101610.19
2023-02-23T18:20:38.308Z,101619.53
2023-02-23T18:25:44.027Z,101628.75
2023-02-23T18:30:48.635Z,101633.94
2023-02-23T18:35:52.623Z,101630.84
2023-02-23T18:40:58.806Z,101635.63
2023-02-23T18:46:07.135Z,101642.94
2023-02-23T18:51:14.239Z,101645.88
2023-02-23T18:56:23.294Z,101655.13
2023-02-23T19:01:30.242Z,101648.81
2023-02-23T19:06:37.460Z,101654.81
2023-02-23T19:11:44.541Z,101663.06
2023-02-23T19:16:49.358Z,101664.78
2023-02-23T19:21:53.347Z,101675.63
2023-02-23T19:27:02.370Z,101675.78
2023-02-23T19:32:07.062Z,101674.22
2023-02-23T19:37:11.347Z,101673.22
2023-02-23T19:42:19.357Z,101675.34
2023-02-23T19:47:23.463Z,101678.56
2023-02-23T19:52:28.884Z,101675.22
2023-02-23T19:57:34.457Z,101673.75
2023-02-23T20:02:42.604Z,101679.78
2023-02-23T20:07:46.733Z,101678.00
2023-02-23T20:12:52.657Z,101678.41
2023-02-23T20:17:56.706Z,101671.47
2023-02-23T20:23:00.969Z,101673.75
2023-02-23T20:28:07.995Z,101678.00
2023-02-23T20:33:13.642Z,101670.81
2023-02-23T20:38:17.762Z,101663.47
2023-02-23T20:43:23.420Z,101665.22
2023-02-23T20:48:28.386Z,101656.00
2023-02-23T20:53:32.499Z,101656.84
2023-02-23T20:58:39.740Z,101657.34
2023-02-23T21:03:44.054Z,101661.84
2023-02-23T21:08:49.011Z,101660.53
2023-02-23T21:13:55.176Z,101660.72
2023-02-23T21:19:04.995Z,101663.38
2023-02-23T21:24:09.735Z,101643.56
2023-02-23T21:29:16.580Z,101657.47
2023-02-23T21:34:21.617Z,101655.34
2023-02-23T21:39:27.437Z,101652.94
2023-02-23T21:44:33.009Z,101662.91
2023-02-23T21:49:38.548Z,101648.59
2023-02-23T21:54:46.663Z,101642.94
2023-02-23T21:59:52.435Z,101661.31
2023-02-23T22:04:56.598Z,101656.47
2023-02-23T22:10:00.814Z,101673.03
2023-02-23T22:15:10.328Z,101673.53
2023-02-23T22:20:15.505Z,101670.28
2023-02-23T22:25:21.453Z,101667.06
2023-02-23T22:30:28.433Z,101665.56
2023-02-23T22:35:32.473Z,101669.81
2023-02-23T22:40:39.820Z,101662.22
2023-02-23T22:45:45.440Z,101663.00
2023-02-23T22:50:50.194Z,101658.75
2023-02-23T22:55:56.076Z,101660.41
2023-02-23T23:01:05.795Z,101648.69
2023-02-23T23:06:11.894Z,101651.78
2023-02-23T23:11:18.995Z,101641.81
2023-02-23T23:16:32.290Z,101643.00
2023-02-23T23:21:37.405Z,101635.41
2023-02-23T23:26:42.954Z,101631.31
2023-02-23T23:31:48.686Z,101624.66
2023-02-23T23:36:53.565Z,101614.53
2023-02-23T23:41:57.972Z,101623.53
2023-02-23T23:47:05.487Z,101610.06
2023-02-23T23:52:09.929Z,101603.97
2023-02-23T23:57:14.455Z,101599.59
